• Join FlightAware (Why Join?)
  • Login
  • US Flag 
12:57AM EDT


 

Airport Tracker/Info


-or-


 

Live Flight TrackerFlight Track Log ✈ AAL1491 ✈ 24-May-2013 ✈ KDCA - KDFW

Flight Track Log - Related Links

Times and Time Zones

All times are in EDT time to prevent confusion due to time zone crossing. See the AAL1491 flight status page for this flight to view local times or setup timezone preferences in your user account.

Time Position Orientation Groundspeed Altitude Reporting Facility
EDT Latitude Longitude Course Direction KTS MPH feet Rate Location/Type
11:30AM 38.8667 -77.0333 270° West 159 183 900  Level Potomac TRACON
11:31AM 38.9000 -77.0833 311° West 181 208 3,100 2,400 Climbing Potomac TRACON
11:32AM 38.9500 -77.1333 322° Northwest 237 273 5,700 2,820 Climbing Potomac TRACON
11:33AM 38.8500 -77.4318 270° West  Level FlightAware Approximate
11:33AM 39.0000 -77.2167 308° West 262 302 8,800  Level Potomac TRACON
11:34AM 38.8500 -77.5646 270° West  Level FlightAware Approximate
11:35AM 38.8500 -77.6974 270° West  Level FlightAware Approximate
11:35AM 38.9797 -77.3619 260° West 301 346 11,900  Level Washington Center
11:36AM 38.8502 -77.8303 270° West  Level FlightAware Approximate
11:36AM 38.9633 -77.4736 259° West 320 368 14,600  Level Washington Center
11:37AM 38.9492 -77.5828 261° West 337 388 17,000 2,280 Climbing Washington Center
11:38AM 38.9300 -77.7211 260° West 360 414 19,300 2,220 Climbing Washington Center
11:39AM 38.9111 -77.8406 259° West 374 430 21,500 1,980 Climbing Washington Center
11:40AM 38.8900 -77.9706 258° West 374 430 23,400 1,560 Climbing Washington Center
11:41AM 38.8706 -78.1033 259° West 379 436 24,700 1,560 Climbing Washington Center
11:42AM 38.8528 -78.2467 261° West 397 457 26,600 2,280 Climbing Washington Center
11:43AM 38.8517 -78.3878 269° West 402 463 29,300 1,740 Climbing Washington Center
11:44AM 38.8403 -78.5233 264° West 402 463 30,200 540 Climbing Washington Center
11:45AM 38.8219 -78.6664 261° West 401 461 30,500 660 Climbing Washington Center
11:46AM 38.8014 -78.8150 260° West 414 476 31,500 1,140 Climbing Washington Center
11:47AM 38.7808 -78.9606 260° West 421 484 32,800 900 Climbing Washington Center
11:48AM 38.7597 -79.1139 260° West 428 493 33,400 840 Climbing Washington Center
11:49AM 38.7378 -79.2911 261° West 452 520 34,500 1,020 Climbing Washington Center
11:50AM 38.7142 -79.4417 259° West 452 520 35,500 1,020 Climbing Washington Center
11:51AM 38.6925 -79.5947 260° West 446 513 36,600 1,020 Climbing Washington Center
11:52AM 38.6708 -79.7425 259° West 441 507 37,600 540 Climbing Washington Center
11:53AM 38.6425 -79.9033 257° West 424 488 37,900 120 Climbing Indianapolis Center
11:54AM 38.6203 -80.0525 259° West 426 490 38,000  Climbing Indianapolis Center
11:55AM 38.5956 -80.2153 259° West 423 487 38,000  Level Indianapolis Center
11:56AM 38.5750 -80.3558 259° West 416 479 38,000  Level Indianapolis Center
11:57AM 38.5383 -80.5161 254° West 419 482 38,000  Level Indianapolis Center
11:58AM 38.5072 -80.6614 255° West 423 487 38,000  Level Indianapolis Center
11:59AM 38.4733 -80.8053 253° West 422 486 38,000  Level Indianapolis Center
12:00PM 38.4408 -80.9503 254° West 423 487 38,000  Level Indianapolis Center
12:01PM 38.4069 -81.0956 253° West 425 489 38,000  Level Indianapolis Center
12:02PM 38.3733 -81.2411 254° West 425 489 38,000  Level Indianapolis Center
12:03PM 38.3389 -81.3878 253° West 427 491 38,000  Level Indianapolis Center
12:04PM 38.3042 -81.5336 253° West 427 491 38,000  Level Indianapolis Center
12:05PM 38.2633 -81.7094 254° West 429 494 38,000  Level Indianapolis Center
12:06PM 38.2286 -81.8583 254° West 435 501 38,000  Level Indianapolis Center
12:07PM 38.1922 -82.0061 253° West 436 502 38,000  Level Indianapolis Center
12:08PM 38.1561 -82.1553 253° West 439 505 38,000  Level Indianapolis Center
12:10PM 38.1219 -82.3008 253° West 432 497 38,000  Level Indianapolis Center
12:11PM 38.0833 -82.4589 253° West 413 475 38,000  Level Indianapolis Center
12:12PM 38.0492 -82.5992 253° West 414 476 38,000  Level Indianapolis Center
12:13PM 38.0139 -82.7403 252° West 419 482 38,000  Level Indianapolis Center
12:14PM 37.9786 -82.8822 253° West 423 487 38,000  Level Indianapolis Center
12:15PM 37.9439 -83.0256 253° West 426 490 38,000  Level Indianapolis Center
12:16PM 37.9025 -83.1906 252° West 423 487 38,000  Level Indianapolis Center
12:17PM 37.8661 -83.3308 252° West 420 483 38,000  Level Indianapolis Center
12:18PM 37.8311 -83.4717 253° West 421 484 38,000  Level Indianapolis Center
12:19PM 37.7758 -83.6044 242° Southwest 432 497 38,000  Level Indianapolis Center
12:20PM 37.7197 -83.7339 241° Southwest 423 487 38,000  Level Indianapolis Center
12:21PM 37.6539 -83.8875 242° Southwest 425 489 38,000  Level Indianapolis Center
12:22PM 37.5981 -84.0167 241° Southwest 421 484 38,000  Level Indianapolis Center
12:23PM 37.5478 -84.1489 244° Southwest 419 482 38,000  Level Indianapolis Center
12:24PM 37.4964 -84.2800 244° Southwest 418 481 38,000  Level Indianapolis Center
12:25PM 37.4453 -84.4106 244° Southwest 415 478 38,000  Level Indianapolis Center
12:26PM 37.3842 -84.5631 243° Southwest 419 482 38,000  Level Indianapolis Center
12:27PM 37.3594 -84.6936 257° West 396 456 38,000  Level Indianapolis Center
12:28PM 37.3356 -84.8275 257° West 408 470 38,000  Level Indianapolis Center
12:29PM 37.2961 -84.9581 249° West 402 463 38,000  Level Indianapolis Center
12:30PM 37.2556 -85.0881 249° West 400 460 38,000  Level Indianapolis Center
12:31PM 37.2067 -85.2369 248° West 396 456 38,000  Level Indianapolis Center
12:32PM 37.1672 -85.3633 249° West 391 450 38,000  Level Indianapolis Center
12:33PM 37.1256 -85.4892 247° West 391 450 38,000  Level Indianapolis Center
12:34PM 37.0831 -85.6178 248° West 396 456 38,000  Level Indianapolis Center
12:35PM 37.0411 -85.7444 248° West 392 451 38,000  Level Indianapolis Center
12:36PM 36.9989 -85.8714 247° West 391 450 38,000  Level Indianapolis Center
12:37PM 36.9575 -85.9989 248° West 392 451 38,000  Level Indianapolis Center
12:38PM 36.9069 -86.1486 247° West 397 457 38,000  Level Indianapolis Center
12:39PM 36.8642 -86.2750 247° West 395 455 38,000  Level Indianapolis Center
12:40PM 36.8361 -86.3622 248° West 404 465 38,000  Level Memphis Center
12:41PM 36.7944 -86.4886 248° West 404 465 38,000  Level Memphis Center
12:42PM 36.7522 -86.6125 247° West 398 458 38,000  Level Memphis Center
12:43PM 36.7083 -86.7414 247° West 404 465 38,000  Level Memphis Center
12:44PM 36.6661 -86.8675 247° West 404 465 38,000  Level Memphis Center
12:45PM 36.6236 -86.9933 247° West 404 465 38,000  Level Memphis Center
12:46PM 36.5811 -87.1192 247° West 404 465 38,000  Level Memphis Center
12:47PM 36.5325 -87.2553 246° West 399 459 38,000  Level Memphis Center
12:48PM 36.4875 -87.3808 246° West 405 466 38,000  Level Memphis Center
12:49PM 36.4428 -87.5064 246° West 405 466 38,000  Level Memphis Center
12:50PM 36.3997 -87.6342 247° West 405 466 38,000  Level Memphis Center
12:51PM 36.3544 -87.7622 246° West 405 466 38,000  Level Memphis Center
12:52PM 36.3092 -87.8897 246° West 405 466 38,000  Level Memphis Center
12:53PM 36.2636 -88.0172 246° West 410 472 38,000  Level Memphis Center
12:54PM 36.2258 -88.1211 246° West 410 472 38,000  Level Memphis Center
12:55PM 36.1783 -88.2561 246° West 405 466 38,000  Level Memphis Center
12:56PM 36.1325 -88.3833 246° West 405 466 38,000  Level Memphis Center
12:57PM 36.0864 -88.5078 245° Southwest 405 466 38,000  Level Memphis Center
12:58PM 36.0381 -88.6319 244° Southwest 405 466 38,000  Level Memphis Center
12:59PM 35.9919 -88.7614 246° West 405 466 38,000  Level Memphis Center
01:00PM 35.9414 -88.8981 245° Southwest 405 466 38,000  Level Memphis Center
01:01PM 35.8928 -89.0244 245° Southwest 405 466 38,000  Level Memphis Center
01:02PM 35.8461 -89.1508 246° West 405 466 38,000  Level Memphis Center
01:03PM 35.7994 -89.2794 246° West 405 466 38,000  Level Memphis Center
01:04PM 35.7525 -89.4056 245° Southwest 405 466 38,000  Level Memphis Center
01:05PM 35.7033 -89.5339 245° Southwest 405 466 38,000  Level Memphis Center
01:06PM 35.6644 -89.6569 249° West 396 456 38,000  Level Memphis Center
01:07PM 35.6172 -89.7825 245° Southwest 401 461 38,000  Level Memphis Center
01:08PM 35.5719 -89.9078 246° West 401 461 38,000  Level Memphis Center
01:09PM 35.5242 -90.0356 245° Southwest 407 468 38,000  Level Memphis Center
01:10PM 35.4744 -90.1633 244° Southwest 407 468 38,000  Level Memphis Center
01:11PM 35.4328 -90.2756 246° West 407 468 38,000  Level Memphis Center
01:12PM 35.3850 -90.3978 244° Southwest 407 468 38,000  Level Memphis Center
01:13PM 35.3369 -90.5200 244° Southwest 401 461 38,000  Level Memphis Center
01:14PM 35.2908 -90.6444 246° West 401 461 38,000  Level Memphis Center
01:15PM 35.2444 -90.7614 244° Southwest 396 456 38,000  Level Memphis Center
01:16PM 35.1983 -90.8806 245° Southwest 396 456 38,000  Level Memphis Center
01:17PM 35.1539 -90.9944 245° Southwest 385 443 38,000  Level Memphis Center
01:18PM 35.1053 -91.1161 244° Southwest 385 443 38,000  Level Memphis Center
01:19PM 35.0544 -91.2425 244° Southwest 378 435 38,000  Level Memphis Center
01:20PM 35.0075 -91.3611 244° Southwest 378 435 38,000  Level Memphis Center
01:21PM 34.9650 -91.4644 243° Southwest 384 442 38,000  Level Memphis Center
01:22PM 34.9181 -91.5803 244° Southwest 384 442 38,000  Level Memphis Center
01:23PM 34.8706 -91.7139 247° West 391 450 38,000  Level Memphis Center
01:24PM 34.8258 -91.8142 242° Southwest 384 442 38,000  Level Memphis Center
01:25PM 34.7742 -91.9347 242° Southwest 384 442 38,000  Level Memphis Center
01:26PM 34.7289 -92.0528 245° Southwest 389 448 38,000  Level Memphis Center
01:27PM 34.6814 -92.1706 244° Southwest 394 453 38,000  Level Memphis Center
01:28PM 34.6461 -92.2958 251° West 394 453 38,000  Level Memphis Center
01:29PM 34.6147 -92.4189 253° West 388 447 38,000  Level Memphis Center
01:30PM 34.5814 -92.5417 252° West 388 447 38,000  Level Memphis Center
01:31PM 34.5478 -92.6694 252° West 388 447 38,000  Level Memphis Center
01:32PM 34.5164 -92.7919 253° West 388 447 38,000  Level Memphis Center
01:33PM 34.4806 -92.9119 250° West 389 448 38,000  Level Memphis Center
01:34PM 34.4486 -93.0444 254° West 394 453 38,000  Level Memphis Center
01:35PM 34.4144 -93.1667 251° West 404 465 38,000  Level Memphis Center
01:36PM 34.3783 -93.2914 251° West 404 465 38,000  Level Memphis Center
01:37PM 34.3439 -93.4186 252° West 404 465 38,000  Level Memphis Center
01:38PM 34.3311 -93.4903 258° West 404 465 38,000  Level Fort Worth Center
01:39PM 34.2975 -93.6150 252° West 390 449 38,000  Level Fort Worth Center
01:40PM 34.2614 -93.7397 251° West 385 443 38,000  Level Fort Worth Center
01:41PM 34.2275 -93.8642 252° West 385 443 38,000  Level Fort Worth Center
01:42PM 34.1933 -93.9886 252° West 391 450 38,000  Level Fort Worth Center
01:43PM 34.1569 -94.1106 250° West 391 450 38,000 -540 Level Fort Worth Center
01:44PM 34.1144 -94.2378 248° West 391 450 37,000 -960 Descending Fort Worth Center
01:45PM 34.0758 -94.3644 250° West 391 450 36,100 -960 Descending Fort Worth Center
01:46PM 34.0350 -94.4911 249° West 396 456 35,100 -960 Descending Fort Worth Center
01:47PM 33.9919 -94.6178 248° West 401 461 34,200 -960 Descending Fort Worth Center
01:48PM 33.9511 -94.7469 249° West 406 467 33,200 -1,500 Descending Fort Worth Center
01:49PM 33.9078 -94.8783 248° West 418 481 31,300 -3,180 Descending Fort Worth Center
01:50PM 33.8625 -95.0147 248° West 424 488 26,900 -3,480 Descending Fort Worth Center
01:51PM 33.8150 -95.1586 248° West 444 511 24,400 -1,800 Descending Fort Worth Center
01:52PM 33.7714 -95.2869 248° West 445 512 23,300 -1,140 Descending Fort Worth Center
01:53PM 33.7317 -95.4106 249° West 421 484 22,200 -1,080 Descending Fort Worth Center
01:54PM 33.6919 -95.5311 248° West 405 466 21,200 -1,020 Descending Fort Worth Center
01:55PM 33.6558 -95.6492 250° West 390 449 20,200 -1,020 Descending Fort Worth Center
01:56PM 33.6139 -95.7697 247° West 390 449 19,200 -1,260 Descending Fort Worth Center
01:57PM 33.5736 -95.8878 248° West 390 449 17,800 -1,680 Descending Fort Worth Center
01:58PM 33.5372 -95.9931 248° West 390 449 15,900 -1,920 Descending Fort Worth Center
01:59PM 33.4967 -96.1183 249° West 383 441 14,000 -960 Descending Fort Worth Center
02:00PM 33.4603 -96.2183 246° West 371 427 14,000 -60 Level Fort Worth Center
02:01PM 33.4194 -96.3408 248° West 365 420 13,900 -540 Descending Fort Worth Center
02:02PM 33.3806 -96.4233 241° Southwest 341 392 13,000 -1,320 Descending Fort Worth Center
02:03PM 33.3144 -96.5011 225° Southwest 315 362 11,300 -1,500 Descending Fort Worth Center
02:04PM 33.2625 -96.5639 225° Southwest 304 350 10,100 -1,440 Descending Fort Worth Center
02:05PM 33.1983 -96.6389 224° Southwest 294 338 8,500 -1,440 Descending Fort Worth Center
02:06PM 33.1508 -96.7089 231° Southwest 289 333 7,300 -1,020 Descending Fort Worth Center
02:07PM 33.1681 -96.7931 284° West 246 283 6,500 -1,080 Descending Fort Worth Center
02:08PM 33.1892 -96.8672 289° West 237 273 5,200 -780 Descending Fort Worth Center
02:09PM 33.2061 -96.9367 286° West 242 278 5,000 -660 Descending Fort Worth Center
02:10PM 33.1731 -97.0039 240° Southwest 209 241 3,900 -1,020 Descending Fort Worth Center
02:11PM 33.1231 -97.0264 201° Southwest 198 228 3,000 -900 Descending Fort Worth Center